Аэропорт
Фукуок (VVPQ)

 VVPQ / PQC

Viet Nam
VN-47
Зыонгдонг
 10.22700, 103.96700  / 23 ft

 VVPQ 201600Z VRB02KT 9999 FEW017 26/21 Q1014 NOSIG
 TAF VVPQ 201100Z 2012/2112 09008KT 9999 SCT017

2020 © VATRUS division (Privacy Policy)